sensor_id;sensor_type;location;lat;lon;timestamp;P1;durP1;ratioP1;P2;durP2;ratioP2
6566;SDS011;3317;43.994;22.878;2022-09-16T00:01:16;8.00;;;2.30;;
6566;SDS011;3317;43.994;22.878;2022-09-16T00:03:44;6.73;;;2.80;;
6566;SDS011;3317;43.994;22.878;2022-09-16T00:06:15;5.40;;;2.37;;
6566;SDS011;3317;43.994;22.878;2022-09-16T00:08:44;7.50;;;2.90;;
6566;SDS011;3317;43.994;22.878;2022-09-16T00:11:11;7.00;;;2.80;;
6566;SDS011;3317;43.994;22.878;2022-09-16T00:13:38;7.87;;;2.77;;
6566;SDS011;3317;43.994;22.878;2022-09-16T00:16:07;6.17;;;2.87;;
6566;SDS011;3317;43.994;22.878;2022-09-16T00:18:35;6.13;;;2.60;;
6566;SDS011;3317;43.994;22.878;2022-09-16T00:21:05;5.40;;;2.70;;
6566;SDS011;3317;43.994;22.878;2022-09-16T00:23:33;5.17;;;2.50;;
6566;SDS011;3317;43.994;22.878;2022-09-16T00:26:01;4.00;;;2.30;;
6566;SDS011;3317;43.994;22.878;2022-09-16T00:28:28;6.13;;;2.57;;
6566;SDS011;3317;43.994;22.878;2022-09-16T00:30:57;6.50;;;2.60;;
6566;SDS011;3317;43.994;22.878;2022-09-16T00:33:25;6.10;;;2.67;;
6566;SDS011;3317;43.994;22.878;2022-09-16T00:36:02;4.87;;;2.67;;
6566;SDS011;3317;43.994;22.878;2022-09-16T00:38:30;7.50;;;2.80;;
6566;SDS011;3317;43.994;22.878;2022-09-16T00:40:57;8.87;;;3.00;;
6566;SDS011;3317;43.994;22.878;2022-09-16T00:43:24;6.33;;;2.63;;
6566;SDS011;3317;43.994;22.878;2022-09-16T00:45:54;8.10;;;3.13;;
6566;SDS011;3317;43.994;22.878;2022-09-16T00:48:26;7.73;;;2.57;;
6566;SDS011;3317;43.994;22.878;2022-09-16T00:50:56;13.43;;;3.47;;
6566;SDS011;3317;43.994;22.878;2022-09-16T00:53:28;10.90;;;3.07;;
6566;SDS011;3317;43.994;22.878;2022-09-16T00:55:59;10.83;;;3.50;;
6566;SDS011;3317;43.994;22.878;2022-09-16T00:58:32;6.13;;;2.43;;
6566;SDS011;3317;43.994;22.878;2022-09-16T01:01:03;8.67;;;2.87;;
6566;SDS011;3317;43.994;22.878;2022-09-16T01:03:34;9.00;;;3.17;;
6566;SDS011;3317;43.994;22.878;2022-09-16T01:06:07;9.63;;;3.00;;
6566;SDS011;3317;43.994;22.878;2022-09-16T01:08:38;10.60;;;2.90;;
6566;SDS011;3317;43.994;22.878;2022-09-16T01:11:07;6.70;;;2.43;;
6566;SDS011;3317;43.994;22.878;2022-09-16T01:13:34;6.60;;;2.50;;
6566;SDS011;3317;43.994;22.878;2022-09-16T01:16:03;10.37;;;2.83;;
6566;SDS011;3317;43.994;22.878;2022-09-16T01:18:37;6.37;;;2.63;;
6566;SDS011;3317;43.994;22.878;2022-09-16T01:30:38;8.20;;;2.70;;
6566;SDS011;3317;43.994;22.878;2022-09-16T01:33:23;10.63;;;2.87;;
6566;SDS011;3317;43.994;22.878;2022-09-16T01:36:02;10.33;;;2.97;;
6566;SDS011;3317;43.994;22.878;2022-09-16T01:38:49;11.33;;;2.97;;
6566;SDS011;3317;43.994;22.878;2022-09-16T01:41:26;11.87;;;3.27;;
6566;SDS011;3317;43.994;22.878;2022-09-16T01:44:01;15.70;;;2.90;;
6566;SDS011;3317;43.994;22.878;2022-09-16T01:46:39;6.17;;;3.13;;
6566;SDS011;3317;43.994;22.878;2022-09-16T01:49:13;9.23;;;3.00;;
6566;SDS011;3317;43.994;22.878;2022-09-16T01:51:47;12.07;;;2.80;;
6566;SDS011;3317;43.994;22.878;2022-09-16T01:54:22;16.70;;;2.77;;
6566;SDS011;3317;43.994;22.878;2022-09-16T01:56:56;9.13;;;2.70;;
6566;SDS011;3317;43.994;22.878;2022-09-16T01:59:27;10.07;;;2.90;;
6566;SDS011;3317;43.994;22.878;2022-09-16T02:02:05;5.97;;;2.57;;
6566;SDS011;3317;43.994;22.878;2022-09-16T02:04:38;13.80;;;2.80;;
6566;SDS011;3317;43.994;22.878;2022-09-16T02:07:09;8.03;;;3.07;;
6566;SDS011;3317;43.994;22.878;2022-09-16T02:09:41;10.93;;;2.73;;
6566;SDS011;3317;43.994;22.878;2022-09-16T02:12:14;14.73;;;2.90;;
6566;SDS011;3317;43.994;22.878;2022-09-16T02:14:46;14.30;;;3.13;;
6566;SDS011;3317;43.994;22.878;2022-09-16T02:17:17;10.13;;;3.10;;
6566;SDS011;3317;43.994;22.878;2022-09-16T02:19:48;8.93;;;2.77;;
6566;SDS011;3317;43.994;22.878;2022-09-16T02:22:22;7.23;;;2.50;;
6566;SDS011;3317;43.994;22.878;2022-09-16T02:24:54;10.23;;;2.80;;
6566;SDS011;3317;43.994;22.878;2022-09-16T02:27:24;14.63;;;3.10;;
6566;SDS011;3317;43.994;22.878;2022-09-16T02:29:55;14.73;;;3.17;;
6566;SDS011;3317;43.994;22.878;2022-09-16T02:32:27;11.30;;;3.30;;
6566;SDS011;3317;43.994;22.878;2022-09-16T02:34:58;8.60;;;3.10;;
6566;SDS011;3317;43.994;22.878;2022-09-16T02:37:28;7.63;;;3.17;;
6566;SDS011;3317;43.994;22.878;2022-09-16T02:39:58;10.47;;;2.80;;
6566;SDS011;3317;43.994;22.878;2022-09-16T02:42:30;13.80;;;3.53;;
6566;SDS011;3317;43.994;22.878;2022-09-16T02:44:58;8.17;;;3.10;;
6566;SDS011;3317;43.994;22.878;2022-09-16T02:47:31;10.33;;;3.80;;
6566;SDS011;3317;43.994;22.878;2022-09-16T02:50:03;14.13;;;3.37;;
6566;SDS011;3317;43.994;22.878;2022-09-16T02:52:39;11.63;;;3.10;;
6566;SDS011;3317;43.994;22.878;2022-09-16T02:55:13;11.40;;;3.43;;
6566;SDS011;3317;43.994;22.878;2022-09-16T02:57:47;15.03;;;3.23;;
6566;SDS011;3317;43.994;22.878;2022-09-16T03:00:15;11.33;;;3.60;;
6566;SDS011;3317;43.994;22.878;2022-09-16T03:02:44;12.37;;;3.97;;
6566;SDS011;3317;43.994;22.878;2022-09-16T03:05:11;13.00;;;3.40;;
6566;SDS011;3317;43.994;22.878;2022-09-16T03:07:38;14.47;;;3.57;;
6566;SDS011;3317;43.994;22.878;2022-09-16T03:10:07;15.97;;;4.13;;
6566;SDS011;3317;43.994;22.878;2022-09-16T03:12:43;8.37;;;3.20;;
6566;SDS011;3317;43.994;22.878;2022-09-16T03:15:22;14.10;;;3.17;;
6566;SDS011;3317;43.994;22.878;2022-09-16T03:21:06;19.23;;;3.63;;
6566;SDS011;3317;43.994;22.878;2022-09-16T03:23:43;9.70;;;3.13;;
6566;SDS011;3317;43.994;22.878;2022-09-16T03:26:21;13.60;;;3.13;;
6566;SDS011;3317;43.994;22.878;2022-09-16T03:28:57;9.60;;;3.30;;
6566;SDS011;3317;43.994;22.878;2022-09-16T03:31:37;12.87;;;3.70;;
6566;SDS011;3317;43.994;22.878;2022-09-16T03:34:12;10.70;;;3.43;;
6566;SDS011;3317;43.994;22.878;2022-09-16T03:36:46;16.13;;;3.23;;
6566;SDS011;3317;43.994;22.878;2022-09-16T03:39:17;8.03;;;3.17;;
6566;SDS011;3317;43.994;22.878;2022-09-16T03:41:46;7.07;;;2.40;;
6566;SDS011;3317;43.994;22.878;2022-09-16T03:44:14;10.10;;;3.30;;
6566;SDS011;3317;43.994;22.878;2022-09-16T03:46:41;10.23;;;3.40;;
6566;SDS011;3317;43.994;22.878;2022-09-16T03:49:08;13.40;;;3.10;;
6566;SDS011;3317;43.994;22.878;2022-09-16T03:51:37;19.87;;;3.40;;
6566;SDS011;3317;43.994;22.878;2022-09-16T03:54:04;16.23;;;3.53;;
6566;SDS011;3317;43.994;22.878;2022-09-16T03:56:32;12.47;;;3.50;;
6566;SDS011;3317;43.994;22.878;2022-09-16T03:58:59;12.53;;;3.53;;
6566;SDS011;3317;43.994;22.878;2022-09-16T04:01:26;13.40;;;3.53;;
6566;SDS011;3317;43.994;22.878;2022-09-16T04:03:53;10.70;;;3.37;;
6566;SDS011;3317;43.994;22.878;2022-09-16T04:06:21;11.80;;;3.37;;
6566;SDS011;3317;43.994;22.878;2022-09-16T04:08:49;8.40;;;3.00;;
6566;SDS011;3317;43.994;22.878;2022-09-16T04:11:17;13.80;;;3.60;;
6566;SDS011;3317;43.994;22.878;2022-09-16T04:13:44;14.80;;;4.07;;
6566;SDS011;3317;43.994;22.878;2022-09-16T04:16:17;9.20;;;3.23;;
6566;SDS011;3317;43.994;22.878;2022-09-16T04:18:45;11.70;;;3.33;;
6566;SDS011;3317;43.994;22.878;2022-09-16T04:21:12;14.93;;;3.10;;
6566;SDS011;3317;43.994;22.878;2022-09-16T04:23:40;7.03;;;2.93;;
6566;SDS011;3317;43.994;22.878;2022-09-16T04:26:08;12.60;;;3.20;;
6566;SDS011;3317;43.994;22.878;2022-09-16T04:28:36;8.00;;;3.40;;
6566;SDS011;3317;43.994;22.878;2022-09-16T04:31:04;7.17;;;3.00;;
6566;SDS011;3317;43.994;22.878;2022-09-16T04:33:34;9.27;;;3.37;;
6566;SDS011;3317;43.994;22.878;2022-09-16T04:36:02;20.10;;;3.97;;
6566;SDS011;3317;43.994;22.878;2022-09-16T04:38:29;13.00;;;3.73;;
6566;SDS011;3317;43.994;22.878;2022-09-16T04:41:01;15.50;;;4.03;;
6566;SDS011;3317;43.994;22.878;2022-09-16T04:43:31;14.07;;;3.90;;
6566;SDS011;3317;43.994;22.878;2022-09-16T04:45:58;18.93;;;4.07;;
6566;SDS011;3317;43.994;22.878;2022-09-16T04:48:25;10.20;;;3.73;;
6566;SDS011;3317;43.994;22.878;2022-09-16T04:51:00;8.30;;;4.37;;
6566;SDS011;3317;43.994;22.878;2022-09-16T04:53:30;8.37;;;3.43;;
6566;SDS011;3317;43.994;22.878;2022-09-16T04:56:06;14.43;;;4.30;;
6566;SDS011;3317;43.994;22.878;2022-09-16T04:58:42;12.40;;;4.50;;
6566;SDS011;3317;43.994;22.878;2022-09-16T05:01:12;11.23;;;4.97;;
6566;SDS011;3317;43.994;22.878;2022-09-16T05:03:40;11.80;;;4.50;;
6566;SDS011;3317;43.994;22.878;2022-09-16T05:06:09;12.27;;;5.47;;
6566;SDS011;3317;43.994;22.878;2022-09-16T05:08:38;13.67;;;5.80;;
6566;SDS011;3317;43.994;22.878;2022-09-16T05:11:11;18.33;;;6.80;;
6566;SDS011;3317;43.994;22.878;2022-09-16T05:13:48;9.63;;;4.83;;
6566;SDS011;3317;43.994;22.878;2022-09-16T05:16:17;12.33;;;4.70;;
6566;SDS011;3317;43.994;22.878;2022-09-16T05:18:49;10.20;;;4.70;;
6566;SDS011;3317;43.994;22.878;2022-09-16T05:21:18;16.73;;;5.20;;
6566;SDS011;3317;43.994;22.878;2022-09-16T05:23:47;13.20;;;3.70;;
6566;SDS011;3317;43.994;22.878;2022-09-16T05:26:15;10.83;;;3.83;;
6566;SDS011;3317;43.994;22.878;2022-09-16T05:28:44;7.83;;;3.63;;
6566;SDS011;3317;43.994;22.878;2022-09-16T05:31:16;10.07;;;4.27;;
6566;SDS011;3317;43.994;22.878;2022-09-16T05:33:45;11.70;;;3.83;;
6566;SDS011;3317;43.994;22.878;2022-09-16T05:36:20;12.00;;;3.60;;
6566;SDS011;3317;43.994;22.878;2022-09-16T05:38:48;13.40;;;3.10;;
6566;SDS011;3317;43.994;22.878;2022-09-16T05:41:16;5.90;;;2.50;;
6566;SDS011;3317;43.994;22.878;2022-09-16T05:43:43;5.03;;;2.47;;
6566;SDS011;3317;43.994;22.878;2022-09-16T05:46:12;12.70;;;2.60;;
6566;SDS011;3317;43.994;22.878;2022-09-16T05:48:46;14.63;;;3.07;;
6566;SDS011;3317;43.994;22.878;2022-09-16T05:51:17;9.20;;;3.10;;
6566;SDS011;3317;43.994;22.878;2022-09-16T05:53:46;11.17;;;3.37;;
6566;SDS011;3317;43.994;22.878;2022-09-16T05:56:15;7.33;;;2.97;;
6566;SDS011;3317;43.994;22.878;2022-09-16T05:58:43;12.53;;;2.90;;
6566;SDS011;3317;43.994;22.878;2022-09-16T06:01:11;12.97;;;2.93;;
6566;SDS011;3317;43.994;22.878;2022-09-16T06:03:42;10.20;;;2.40;;
6566;SDS011;3317;43.994;22.878;2022-09-16T06:06:11;8.17;;;2.37;;
6566;SDS011;3317;43.994;22.878;2022-09-16T06:08:41;9.03;;;2.80;;
6566;SDS011;3317;43.994;22.878;2022-09-16T06:11:09;16.57;;;3.73;;
6566;SDS011;3317;43.994;22.878;2022-09-16T06:13:37;15.27;;;2.63;;
6566;SDS011;3317;43.994;22.878;2022-09-16T06:16:05;9.07;;;2.47;;
6566;SDS011;3317;43.994;22.878;2022-09-16T06:18:34;19.13;;;3.10;;
6566;SDS011;3317;43.994;22.878;2022-09-16T06:21:04;17.23;;;2.90;;
6566;SDS011;3317;43.994;22.878;2022-09-16T06:23:33;20.83;;;3.30;;
6566;SDS011;3317;43.994;22.878;2022-09-16T06:26:01;12.60;;;3.00;;
6566;SDS011;3317;43.994;22.878;2022-09-16T06:28:32;4.93;;;2.00;;
6566;SDS011;3317;43.994;22.878;2022-09-16T06:31:00;4.67;;;2.20;;
6566;SDS011;3317;43.994;22.878;2022-09-16T06:33:28;10.60;;;3.10;;
6566;SDS011;3317;43.994;22.878;2022-09-16T06:35:55;3.40;;;1.90;;
6566;SDS011;3317;43.994;22.878;2022-09-16T06:38:24;8.43;;;3.67;;
6566;SDS011;3317;43.994;22.878;2022-09-16T06:40:50;7.30;;;2.50;;
6566;SDS011;3317;43.994;22.878;2022-09-16T06:43:19;5.53;;;2.03;;
6566;SDS011;3317;43.994;22.878;2022-09-16T06:45:46;8.10;;;2.50;;
6566;SDS011;3317;43.994;22.878;2022-09-16T06:48:13;7.17;;;2.50;;
6566;SDS011;3317;43.994;22.878;2022-09-16T06:50:42;6.67;;;2.60;;
6566;SDS011;3317;43.994;22.878;2022-09-16T06:53:09;5.30;;;1.83;;
6566;SDS011;3317;43.994;22.878;2022-09-16T06:55:40;10.33;;;2.60;;
6566;SDS011;3317;43.994;22.878;2022-09-16T06:58:20;8.30;;;2.13;;
6566;SDS011;3317;43.994;22.878;2022-09-16T07:00:47;11.80;;;5.53;;
6566;SDS011;3317;43.994;22.878;2022-09-16T07:03:15;8.37;;;3.60;;
6566;SDS011;3317;43.994;22.878;2022-09-16T07:05:42;3.40;;;1.83;;
6566;SDS011;3317;43.994;22.878;2022-09-16T07:08:09;4.70;;;2.47;;
6566;SDS011;3317;43.994;22.878;2022-09-16T07:10:36;4.43;;;2.30;;
6566;SDS011;3317;43.994;22.878;2022-09-16T07:13:07;4.10;;;1.87;;
6566;SDS011;3317;43.994;22.878;2022-09-16T07:15:34;8.10;;;2.23;;
6566;SDS011;3317;43.994;22.878;2022-09-16T07:18:01;7.57;;;2.23;;
6566;SDS011;3317;43.994;22.878;2022-09-16T07:20:28;7.20;;;2.30;;
6566;SDS011;3317;43.994;22.878;2022-09-16T07:22:55;6.53;;;2.53;;
6566;SDS011;3317;43.994;22.878;2022-09-16T07:25:24;5.00;;;2.30;;
6566;SDS011;3317;43.994;22.878;2022-09-16T07:27:53;7.50;;;2.30;;
6566;SDS011;3317;43.994;22.878;2022-09-16T07:30:21;4.17;;;2.00;;
6566;SDS011;3317;43.994;22.878;2022-09-16T07:32:48;4.67;;;1.83;;
6566;SDS011;3317;43.994;22.878;2022-09-16T07:35:15;6.17;;;2.43;;
6566;SDS011;3317;43.994;22.878;2022-09-16T07:37:43;9.10;;;2.40;;
6566;SDS011;3317;43.994;22.878;2022-09-16T07:40:10;7.13;;;2.70;;
6566;SDS011;3317;43.994;22.878;2022-09-16T07:42:37;5.20;;;2.07;;
6566;SDS011;3317;43.994;22.878;2022-09-16T07:45:04;8.03;;;2.23;;
6566;SDS011;3317;43.994;22.878;2022-09-16T07:47:36;6.80;;;2.27;;
6566;SDS011;3317;43.994;22.878;2022-09-16T07:50:03;8.87;;;1.87;;
6566;SDS011;3317;43.994;22.878;2022-09-16T07:52:32;4.53;;;1.90;;
6566;SDS011;3317;43.994;22.878;2022-09-16T07:54:58;8.10;;;2.43;;
6566;SDS011;3317;43.994;22.878;2022-09-16T07:57:27;5.27;;;1.77;;
6566;SDS011;3317;43.994;22.878;2022-09-16T07:59:56;9.93;;;2.10;;
6566;SDS011;3317;43.994;22.878;2022-09-16T08:02:24;5.83;;;2.20;;
6566;SDS011;3317;43.994;22.878;2022-09-16T08:04:53;7.27;;;2.20;;
6566;SDS011;3317;43.994;22.878;2022-09-16T08:07:20;6.10;;;2.30;;
6566;SDS011;3317;43.994;22.878;2022-09-16T08:09:46;7.43;;;2.03;;
6566;SDS011;3317;43.994;22.878;2022-09-16T08:12:13;6.80;;;2.27;;
6566;SDS011;3317;43.994;22.878;2022-09-16T08:14:40;10.80;;;2.33;;
6566;SDS011;3317;43.994;22.878;2022-09-16T08:17:09;4.37;;;2.20;;
6566;SDS011;3317;43.994;22.878;2022-09-16T08:19:37;6.20;;;2.27;;
6566;SDS011;3317;43.994;22.878;2022-09-16T08:22:06;5.87;;;2.33;;
6566;SDS011;3317;43.994;22.878;2022-09-16T08:24:33;5.80;;;2.33;;
6566;SDS011;3317;43.994;22.878;2022-09-16T08:27:01;7.57;;;2.20;;
6566;SDS011;3317;43.994;22.878;2022-09-16T08:29:30;5.27;;;2.33;;
6566;SDS011;3317;43.994;22.878;2022-09-16T08:31:59;7.90;;;2.30;;
6566;SDS011;3317;43.994;22.878;2022-09-16T08:34:26;13.10;;;2.57;;
6566;SDS011;3317;43.994;22.878;2022-09-16T08:36:53;5.07;;;2.40;;
6566;SDS011;3317;43.994;22.878;2022-09-16T08:39:24;3.43;;;1.90;;
6566;SDS011;3317;43.994;22.878;2022-09-16T08:42:07;4.50;;;2.37;;
6566;SDS011;3317;43.994;22.878;2022-09-16T08:44:50;8.00;;;2.53;;
6566;SDS011;3317;43.994;22.878;2022-09-16T08:47:27;7.13;;;2.20;;
6566;SDS011;3317;43.994;22.878;2022-09-16T08:50:09;5.53;;;2.23;;
6566;SDS011;3317;43.994;22.878;2022-09-16T08:52:40;7.23;;;2.80;;
6566;SDS011;3317;43.994;22.878;2022-09-16T08:55:11;6.07;;;2.50;;
6566;SDS011;3317;43.994;22.878;2022-09-16T08:57:44;13.23;;;2.83;;
6566;SDS011;3317;43.994;22.878;2022-09-16T09:00:19;6.57;;;2.20;;
6566;SDS011;3317;43.994;22.878;2022-09-16T09:02:48;12.10;;;2.97;;
6566;SDS011;3317;43.994;22.878;2022-09-16T09:05:23;7.57;;;2.97;;
6566;SDS011;3317;43.994;22.878;2022-09-16T09:08:05;16.00;;;3.47;;
6566;SDS011;3317;43.994;22.878;2022-09-16T09:10:51;8.67;;;2.80;;
6566;SDS011;3317;43.994;22.878;2022-09-16T09:13:30;11.10;;;2.97;;
6566;SDS011;3317;43.994;22.878;2022-09-16T09:16:11;11.50;;;3.10;;
6566;SDS011;3317;43.994;22.878;2022-09-16T09:18:49;10.13;;;2.37;;
6566;SDS011;3317;43.994;22.878;2022-09-16T09:21:33;3.87;;;1.93;;
6566;SDS011;3317;43.994;22.878;2022-09-16T09:24:15;5.87;;;2.27;;
6566;SDS011;3317;43.994;22.878;2022-09-16T09:26:56;6.57;;;2.00;;
6566;SDS011;3317;43.994;22.878;2022-09-16T09:29:33;8.63;;;2.93;;
6566;SDS011;3317;43.994;22.878;2022-09-16T09:32:14;4.30;;;1.90;;
6566;SDS011;3317;43.994;22.878;2022-09-16T09:34:51;8.40;;;2.20;;
6566;SDS011;3317;43.994;22.878;2022-09-16T09:37:36;11.63;;;2.77;;
6566;SDS011;3317;43.994;22.878;2022-09-16T09:40:20;6.53;;;3.57;;
6566;SDS011;3317;43.994;22.878;2022-09-16T09:43:01;7.23;;;3.23;;
6566;SDS011;3317;43.994;22.878;2022-09-16T09:45:35;10.27;;;2.70;;
6566;SDS011;3317;43.994;22.878;2022-09-16T09:48:09;6.97;;;2.70;;
6566;SDS011;3317;43.994;22.878;2022-09-16T09:50:44;7.77;;;2.40;;
6566;SDS011;3317;43.994;22.878;2022-09-16T09:53:13;4.57;;;2.00;;
6566;SDS011;3317;43.994;22.878;2022-09-16T09:55:46;8.77;;;2.60;;
6566;SDS011;3317;43.994;22.878;2022-09-16T09:58:20;7.87;;;2.47;;
6566;SDS011;3317;43.994;22.878;2022-09-16T10:00:54;4.87;;;1.90;;
6566;SDS011;3317;43.994;22.878;2022-09-16T10:03:21;8.73;;;1.93;;
6566;SDS011;3317;43.994;22.878;2022-09-16T10:05:51;10.03;;;2.13;;
6566;SDS011;3317;43.994;22.878;2022-09-16T10:08:21;8.00;;;1.93;;
6566;SDS011;3317;43.994;22.878;2022-09-16T10:10:54;8.73;;;2.70;;
6566;SDS011;3317;43.994;22.878;2022-09-16T10:13:25;8.80;;;2.33;;
6566;SDS011;3317;43.994;22.878;2022-09-16T10:16:04;4.97;;;2.00;;
6566;SDS011;3317;43.994;22.878;2022-09-16T10:18:34;5.00;;;1.77;;
6566;SDS011;3317;43.994;22.878;2022-09-16T10:21:04;8.20;;;2.20;;
6566;SDS011;3317;43.994;22.878;2022-09-16T10:23:33;6.80;;;2.23;;
6566;SDS011;3317;43.994;22.878;2022-09-16T10:26:04;8.67;;;2.60;;
6566;SDS011;3317;43.994;22.878;2022-09-16T10:28:34;5.20;;;2.83;;
6566;SDS011;3317;43.994;22.878;2022-09-16T10:31:01;10.37;;;2.10;;
6566;SDS011;3317;43.994;22.878;2022-09-16T10:33:32;5.07;;;2.47;;
6566;SDS011;3317;43.994;22.878;2022-09-16T10:36:02;4.97;;;2.00;;
6566;SDS011;3317;43.994;22.878;2022-09-16T10:38:35;5.63;;;2.07;;
6566;SDS011;3317;43.994;22.878;2022-09-16T10:41:06;6.80;;;2.40;;
6566;SDS011;3317;43.994;22.878;2022-09-16T10:43:37;4.97;;;2.00;;
6566;SDS011;3317;43.994;22.878;2022-09-16T10:46:12;12.70;;;2.50;;
6566;SDS011;3317;43.994;22.878;2022-09-16T10:48:41;7.10;;;2.57;;
6566;SDS011;3317;43.994;22.878;2022-09-16T10:51:18;9.80;;;2.30;;
6566;SDS011;3317;43.994;22.878;2022-09-16T10:53:50;3.70;;;2.13;;
6566;SDS011;3317;43.994;22.878;2022-09-16T10:56:19;4.60;;;2.23;;
6566;SDS011;3317;43.994;22.878;2022-09-16T10:58:50;7.13;;;3.00;;
6566;SDS011;3317;43.994;22.878;2022-09-16T11:01:29;2.67;;;1.90;;
6566;SDS011;3317;43.994;22.878;2022-09-16T11:04:10;8.70;;;2.80;;
6566;SDS011;3317;43.994;22.878;2022-09-16T11:07:02;7.33;;;2.57;;
6566;SDS011;3317;43.994;22.878;2022-09-16T11:09:39;11.10;;;2.60;;
6566;SDS011;3317;43.994;22.878;2022-09-16T11:12:24;6.77;;;2.20;;
6566;SDS011;3317;43.994;22.878;2022-09-16T11:15:15;7.53;;;2.23;;
6566;SDS011;3317;43.994;22.878;2022-09-16T11:17:58;3.40;;;1.90;;
6566;SDS011;3317;43.994;22.878;2022-09-16T11:20:38;7.53;;;2.63;;
6566;SDS011;3317;43.994;22.878;2022-09-16T11:23:20;8.73;;;2.77;;
6566;SDS011;3317;43.994;22.878;2022-09-16T11:26:02;6.60;;;2.50;;
6566;SDS011;3317;43.994;22.878;2022-09-16T11:28:54;4.30;;;2.10;;
6566;SDS011;3317;43.994;22.878;2022-09-16T11:31:38;12.67;;;2.70;;
6566;SDS011;3317;43.994;22.878;2022-09-16T11:34:18;7.67;;;2.57;;
6566;SDS011;3317;43.994;22.878;2022-09-16T11:37:01;8.40;;;2.73;;
6566;SDS011;3317;43.994;22.878;2022-09-16T11:39:38;8.73;;;3.30;;
6566;SDS011;3317;43.994;22.878;2022-09-16T11:42:15;10.63;;;3.00;;
6566;SDS011;3317;43.994;22.878;2022-09-16T11:44:50;11.10;;;4.20;;
6566;SDS011;3317;43.994;22.878;2022-09-16T11:47:34;7.93;;;3.53;;
6566;SDS011;3317;43.994;22.878;2022-09-16T11:50:16;4.80;;;2.10;;
6566;SDS011;3317;43.994;22.878;2022-09-16T11:52:55;11.70;;;3.03;;
6566;SDS011;3317;43.994;22.878;2022-09-16T11:55:36;7.33;;;3.40;;
6566;SDS011;3317;43.994;22.878;2022-09-16T11:58:29;9.73;;;3.00;;
6566;SDS011;3317;43.994;22.878;2022-09-16T12:01:02;8.67;;;2.60;;
6566;SDS011;3317;43.994;22.878;2022-09-16T12:03:39;5.50;;;2.33;;
6566;SDS011;3317;43.994;22.878;2022-09-16T12:06:14;9.57;;;3.77;;
6566;SDS011;3317;43.994;22.878;2022-09-16T12:08:49;11.17;;;2.90;;
6566;SDS011;3317;43.994;22.878;2022-09-16T12:11:24;6.10;;;2.40;;
6566;SDS011;3317;43.994;22.878;2022-09-16T12:13:59;6.77;;;2.50;;
6566;SDS011;3317;43.994;22.878;2022-09-16T12:16:35;8.53;;;2.70;;
6566;SDS011;3317;43.994;22.878;2022-09-16T12:19:10;5.40;;;2.70;;
6566;SDS011;3317;43.994;22.878;2022-09-16T12:21:45;5.63;;;2.63;;
6566;SDS011;3317;43.994;22.878;2022-09-16T12:24:16;6.10;;;2.50;;
6566;SDS011;3317;43.994;22.878;2022-09-16T12:26:50;7.60;;;2.23;;
6566;SDS011;3317;43.994;22.878;2022-09-16T12:29:25;9.47;;;3.00;;
6566;SDS011;3317;43.994;22.878;2022-09-16T12:31:59;4.30;;;2.50;;
6566;SDS011;3317;43.994;22.878;2022-09-16T12:34:32;5.70;;;2.50;;
6566;SDS011;3317;43.994;22.878;2022-09-16T12:37:05;9.17;;;2.70;;
6566;SDS011;3317;43.994;22.878;2022-09-16T12:39:41;5.00;;;2.80;;
6566;SDS011;3317;43.994;22.878;2022-09-16T12:42:30;5.40;;;2.87;;
6566;SDS011;3317;43.994;22.878;2022-09-16T12:45:24;6.93;;;2.40;;
6566;SDS011;3317;43.994;22.878;2022-09-16T12:48:23;11.03;;;2.70;;
6566;SDS011;3317;43.994;22.878;2022-09-16T12:51:19;9.70;;;3.27;;
6566;SDS011;3317;43.994;22.878;2022-09-16T12:59:57;6.23;;;2.77;;
6566;SDS011;3317;43.994;22.878;2022-09-16T13:02:43;5.97;;;2.40;;
6566;SDS011;3317;43.994;22.878;2022-09-16T13:05:16;4.00;;;2.43;;
6566;SDS011;3317;43.994;22.878;2022-09-16T13:07:51;5.17;;;2.40;;
6566;SDS011;3317;43.994;22.878;2022-09-16T13:10:28;7.70;;;3.17;;
6566;SDS011;3317;43.994;22.878;2022-09-16T13:12:57;8.40;;;2.80;;
6566;SDS011;3317;43.994;22.878;2022-09-16T13:15:27;8.43;;;3.20;;
6566;SDS011;3317;43.994;22.878;2022-09-16T13:18:06;9.00;;;3.17;;
6566;SDS011;3317;43.994;22.878;2022-09-16T13:20:36;3.80;;;2.10;;
6566;SDS011;3317;43.994;22.878;2022-09-16T13:23:10;6.27;;;2.67;;
6566;SDS011;3317;43.994;22.878;2022-09-16T13:25:44;7.50;;;2.47;;
6566;SDS011;3317;43.994;22.878;2022-09-16T13:28:23;17.40;;;2.67;;
6566;SDS011;3317;43.994;22.878;2022-09-16T13:31:08;3.90;;;2.53;;
6566;SDS011;3317;43.994;22.878;2022-09-16T13:33:42;5.77;;;2.40;;
6566;SDS011;3317;43.994;22.878;2022-09-16T13:36:29;6.93;;;2.80;;
6566;SDS011;3317;43.994;22.878;2022-09-16T13:39:00;8.37;;;2.40;;
6566;SDS011;3317;43.994;22.878;2022-09-16T13:41:34;4.70;;;2.00;;
6566;SDS011;3317;43.994;22.878;2022-09-16T13:47:05;5.77;;;2.13;;
6566;SDS011;3317;43.994;22.878;2022-09-16T13:49:44;7.63;;;2.43;;
6566;SDS011;3317;43.994;22.878;2022-09-16T13:52:18;4.23;;;2.10;;
6566;SDS011;3317;43.994;22.878;2022-09-16T13:54:49;8.83;;;2.10;;
6566;SDS011;3317;43.994;22.878;2022-09-16T14:00:18;6.30;;;1.90;;
6566;SDS011;3317;43.994;22.878;2022-09-16T14:05:47;6.27;;;2.10;;
6566;SDS011;3317;43.994;22.878;2022-09-16T14:08:38;6.10;;;2.03;;
6566;SDS011;3317;43.994;22.878;2022-09-16T14:11:12;9.10;;;2.17;;
6566;SDS011;3317;43.994;22.878;2022-09-16T14:13:46;11.90;;;2.50;;
6566;SDS011;3317;43.994;22.878;2022-09-16T14:16:16;6.07;;;2.20;;
6566;SDS011;3317;43.994;22.878;2022-09-16T14:18:48;5.63;;;2.30;;
6566;SDS011;3317;43.994;22.878;2022-09-16T14:21:21;9.57;;;1.97;;
6566;SDS011;3317;43.994;22.878;2022-09-16T14:23:49;8.73;;;2.00;;
6566;SDS011;3317;43.994;22.878;2022-09-16T14:26:19;5.83;;;1.90;;
6566;SDS011;3317;43.994;22.878;2022-09-16T14:28:47;5.10;;;2.47;;
6566;SDS011;3317;43.994;22.878;2022-09-16T14:31:17;8.03;;;1.90;;
6566;SDS011;3317;43.994;22.878;2022-09-16T14:33:47;6.43;;;2.10;;
6566;SDS011;3317;43.994;22.878;2022-09-16T14:36:18;10.73;;;2.53;;
6566;SDS011;3317;43.994;22.878;2022-09-16T14:38:49;11.27;;;2.57;;
6566;SDS011;3317;43.994;22.878;2022-09-16T14:41:23;5.83;;;2.00;;
6566;SDS011;3317;43.994;22.878;2022-09-16T14:43:54;7.73;;;2.50;;
6566;SDS011;3317;43.994;22.878;2022-09-16T14:46:32;9.30;;;5.10;;
6566;SDS011;3317;43.994;22.878;2022-09-16T14:49:07;6.17;;;4.10;;
6566;SDS011;3317;43.994;22.878;2022-09-16T14:51:36;6.00;;;2.50;;
6566;SDS011;3317;43.994;22.878;2022-09-16T14:54:14;14.90;;;11.90;;
6566;SDS011;3317;43.994;22.878;2022-09-16T14:56:54;16.17;;;14.43;;
6566;SDS011;3317;43.994;22.878;2022-09-16T14:59:26;10.90;;;8.57;;
6566;SDS011;3317;43.994;22.878;2022-09-16T15:01:57;18.20;;;15.30;;
6566;SDS011;3317;43.994;22.878;2022-09-16T15:04:28;5.50;;;3.03;;
6566;SDS011;3317;43.994;22.878;2022-09-16T15:07:08;10.30;;;5.90;;
6566;SDS011;3317;43.994;22.878;2022-09-16T15:09:42;6.20;;;4.57;;
6566;SDS011;3317;43.994;22.878;2022-09-16T15:12:20;8.47;;;5.70;;
6566;SDS011;3317;43.994;22.878;2022-09-16T15:14:50;6.40;;;3.13;;
6566;SDS011;3317;43.994;22.878;2022-09-16T15:17:18;6.57;;;3.70;;
6566;SDS011;3317;43.994;22.878;2022-09-16T15:19:50;6.43;;;3.00;;
6566;SDS011;3317;43.994;22.878;2022-09-16T15:22:20;9.77;;;4.40;;
6566;SDS011;3317;43.994;22.878;2022-09-16T15:24:48;9.17;;;3.33;;
6566;SDS011;3317;43.994;22.878;2022-09-16T15:27:23;9.17;;;5.50;;
6566;SDS011;3317;43.994;22.878;2022-09-16T15:29:53;7.90;;;3.20;;
6566;SDS011;3317;43.994;22.878;2022-09-16T15:32:24;5.70;;;2.37;;
6566;SDS011;3317;43.994;22.878;2022-09-16T15:35:11;6.43;;;1.87;;
6566;SDS011;3317;43.994;22.878;2022-09-16T15:37:44;7.60;;;3.67;;
6566;SDS011;3317;43.994;22.878;2022-09-16T15:43:13;5.27;;;1.80;;
6566;SDS011;3317;43.994;22.878;2022-09-16T15:45:55;5.77;;;1.73;;
6566;SDS011;3317;43.994;22.878;2022-09-16T15:48:25;3.47;;;2.23;;
6566;SDS011;3317;43.994;22.878;2022-09-16T15:50:56;4.90;;;2.33;;
6566;SDS011;3317;43.994;22.878;2022-09-16T15:53:34;6.13;;;1.70;;
6566;SDS011;3317;43.994;22.878;2022-09-16T15:56:06;4.30;;;2.03;;
6566;SDS011;3317;43.994;22.878;2022-09-16T15:58:44;7.17;;;1.70;;
6566;SDS011;3317;43.994;22.878;2022-09-16T16:01:14;2.50;;;1.20;;